createdAt,value
2023-02-09T04:34:42.522Z,3.53
2023-02-09T04:37:09.590Z,2.78
2023-02-09T04:39:37.494Z,2.88
2023-02-09T04:42:04.726Z,2.40
2023-02-09T04:44:31.774Z,2.47
2023-02-09T04:46:58.729Z,2.60
2023-02-09T04:49:25.823Z,2.42
2023-02-09T04:51:52.888Z,3.20
2023-02-09T04:54:19.890Z,2.55
2023-02-09T04:56:47.254Z,2.42
2023-02-09T04:59:32.772Z,2.58
2023-02-09T05:01:59.777Z,3.03
2023-02-09T05:04:27.090Z,2.75
2023-02-09T05:06:54.370Z,3.47
2023-02-09T05:09:21.693Z,2.50
2023-02-09T05:11:51.195Z,5.57
2023-02-09T05:14:18.316Z,3.03
2023-02-09T05:16:45.659Z,3.47
2023-02-09T05:19:13.590Z,2.78
2023-02-09T05:21:40.671Z,2.50
2023-02-09T05:24:07.953Z,2.45
2023-02-09T05:26:41.009Z,2.50
2023-02-09T05:29:08.030Z,2.20
2023-02-09T05:34:55.556Z,3.13
2023-02-09T05:37:22.800Z,2.40
2023-02-09T05:39:55.809Z,2.70
2023-02-09T05:42:23.425Z,4.05
2023-02-09T05:44:52.066Z,2.58
2023-02-09T05:47:21.222Z,2.80
2023-02-09T05:49:51.403Z,3.10
2023-02-09T05:52:20.027Z,2.55
2023-02-09T05:57:41.234Z,2.38
2023-02-09T06:00:09.051Z,4.05
2023-02-09T06:02:42.484Z,3.15
2023-02-09T06:05:09.580Z,2.20
2023-02-09T06:10:41.649Z,2.25
2023-02-09T06:13:10.695Z,2.70
2023-02-09T06:18:42.672Z,4.57
2023-02-09T06:21:11.700Z,3.15
2023-02-09T06:23:42.669Z,2.70
2023-02-09T06:28:40.352Z,2.78
2023-02-09T06:31:08.666Z,3.78
2023-02-09T06:33:37.359Z,2.80
2023-02-09T06:36:06.008Z,3.83
2023-02-09T06:38:37.615Z,4.38
2023-02-09T06:41:05.207Z,4.95
2023-02-09T06:43:32.621Z,4.15
2023-02-09T06:46:04.536Z,3.75
2023-02-09T06:48:31.624Z,4.57
2023-02-09T06:50:59.040Z,4.72
2023-02-09T06:53:26.311Z,3.95
2023-02-09T06:55:53.305Z,5.03
2023-02-09T06:58:20.547Z,3.53
2023-02-09T07:00:47.831Z,4.78
2023-02-09T07:03:14.935Z,4.15
2023-02-09T07:05:41.992Z,6.00
2023-02-09T07:08:09.060Z,3.55
2023-02-09T07:10:36.252Z,3.42
2023-02-09T07:13:03.275Z,4.05
2023-02-09T07:56:02.501Z,4.38
2023-02-09T07:59:22.074Z,4.60
2023-02-09T08:02:44.196Z,3.40
2023-02-09T08:06:04.444Z,4.25
2023-02-09T10:37:22.094Z,4.47
2023-02-09T10:40:16.484Z,5.68
2023-02-09T10:43:01.257Z,4.57
2023-02-09T10:45:52.715Z,4.35
2023-02-09T10:48:23.482Z,6.13
2023-02-09T10:50:51.955Z,4.53
2023-02-09T10:53:26.026Z,3.63
2023-02-09T10:56:17.458Z,4.97
2023-02-09T10:59:13.770Z,5.35
2023-02-09T11:01:43.674Z,3.50
2023-02-09T11:04:37.690Z,4.18
2023-02-09T11:07:11.451Z,4.28
2023-02-09T12:48:08.837Z,4.22
2023-02-09T12:52:24.463Z,3.90
2023-02-09T17:56:36.955Z,6.72
2023-02-09T17:59:08.574Z,7.40
2023-02-09T18:01:49.684Z,7.32
2023-02-09T18:04:22.599Z,6.17
2023-02-09T18:06:49.818Z,5.75
2023-02-09T18:09:17.120Z,7.28
2023-02-09T18:11:59.867Z,6.32
2023-02-09T18:14:28.887Z,8.23
2023-02-09T18:16:56.138Z,8.18
2023-02-09T21:11:09.091Z,11.30
2023-02-09T21:13:41.629Z,13.02
2023-02-09T21:16:10.070Z,13.13
2023-02-09T21:18:38.177Z,14.93
2023-02-09T21:21:11.708Z,14.52
2023-02-09T21:23:43.617Z,14.18
2023-02-09T21:26:14.717Z,15.15
2023-02-09T21:28:44.094Z,14.85
2023-02-09T21:31:20.081Z,14.45
2023-02-09T21:33:47.449Z,15.20
2023-02-09T21:36:14.835Z,14.52
2023-02-09T21:38:41.958Z,14.15
2023-02-09T21:41:37.027Z,16.50
2023-02-09T21:44:04.729Z,13.65
2023-02-09T21:46:33.221Z,14.98
2023-02-09T21:49:00.390Z,13.57
2023-02-09T21:51:30.656Z,15.15
2023-02-09T21:53:58.185Z,13.75
2023-02-09T21:56:28.378Z,14.77
2023-02-09T22:01:48.807Z,16.77
2023-02-09T22:04:21.893Z,15.63
2023-02-09T22:06:51.770Z,13.85
2023-02-09T22:15:19.462Z,14.52
2023-02-09T22:17:50.604Z,13.95
2023-02-09T22:20:20.960Z,15.13
2023-02-09T22:22:49.826Z,16.77
2023-02-09T22:25:17.122Z,14.63
2023-02-09T22:27:47.289Z,14.65
2023-02-09T22:30:17.171Z,15.18
2023-02-09T22:32:44.372Z,14.52
2023-02-09T22:35:11.536Z,13.40
2023-02-09T22:37:39.071Z,15.52
2023-02-09T22:40:06.447Z,16.95
2023-02-09T22:42:33.554Z,14.43
2023-02-09T22:45:00.767Z,16.42
2023-02-09T22:47:27.890Z,14.68
2023-02-09T22:49:54.901Z,14.00
2023-02-09T22:52:22.406Z,16.00
2023-02-09T22:54:49.641Z,14.98
2023-02-09T22:57:16.617Z,18.13
2023-02-09T22:59:43.643Z,16.83
2023-02-09T23:02:13.456Z,14.50
2023-02-09T23:04:40.704Z,13.20
2023-02-09T23:07:07.727Z,14.00
2023-02-09T23:09:34.792Z,14.95
2023-02-09T23:12:02.028Z,14.57
2023-02-09T23:14:29.071Z,14.63
2023-02-09T23:16:56.204Z,14.25
2023-02-09T23:19:23.212Z,15.60
2023-02-09T23:22:12.607Z,15.30
2023-02-09T23:24:39.677Z,14.95
2023-02-09T23:27:06.785Z,15.63
2023-02-09T23:29:33.807Z,15.65
2023-02-09T23:32:00.976Z,14.60
2023-02-09T23:34:28.020Z,13.52
2023-02-09T23:36:55.042Z,12.93
2023-02-09T23:39:22.805Z,14.25
2023-02-09T23:41:49.995Z,12.73
2023-02-09T23:44:20.590Z,14.65
2023-02-09T23:46:47.773Z,15.15
2023-02-09T23:49:14.805Z,12.60
2023-02-09T23:51:42.323Z,15.18
2023-02-09T23:54:10.952Z,12.82
2023-02-09T23:56:40.129Z,12.90
2023-02-09T23:59:10.024Z,13.75
